DLH33N EDDF-EGCC
Flight info
| Callsign | DLH33N |
|---|---|
| Flight time | 1h 19m |
| Altitude | 34000 |
| Route | OBOKA3M/25C OBOKA Z29 TORNU DCT GALSO Q63 ERING L179 LAM UN57 WELIN T420 ELVOS |
| Aircraft | A320/M-SDE3FGHIRWY/LB1 |
Departure
| Time | 2026-04-18 09:54 |
|---|---|
| Airport | Frankfurt Main Airport (EDDF) |
Arrival
| Time | 2026-04-18 11:13 |
|---|---|
| Airport | Manchester Airport (EGCC) |
| Time | Latitude | Longitude | Altitude | Speed | Heading |
|---|---|---|---|---|---|
| 2026-04-18 09:14 | 50.04752 | 8.56884 | 364 ft | 0 kts | 294° |
| 2026-04-18 09:43 | 50.04752 | 8.56886 | 364 ft | 2 kts | 294° |
| 2026-04-18 09:44 | 50.04742 | 8.56922 | 360 ft | 4 kts | 287° |
| 2026-04-18 09:44 | 50.04736 | 8.56962 | 358 ft | 4 kts | 269° |
| 2026-04-18 09:44 | 50.04743 | 8.56996 | 360 ft | 4 kts | 212° |
| 2026-04-18 09:44 | 50.04746 | 8.57000 | 363 ft | 0 kts | 204° |
| 2026-04-18 09:47 | 50.04729 | 8.56988 | 362 ft | 6 kts | 204° |
| 2026-04-18 09:47 | 50.04681 | 8.56953 | 361 ft | 0 kts | 207° |
| 2026-04-18 09:47 | 50.04667 | 8.56943 | 360 ft | 5 kts | 206° |
| 2026-04-18 09:48 | 50.04611 | 8.56911 | 356 ft | 12 kts | 195° |
| 2026-04-18 09:48 | 50.04518 | 8.56878 | 359 ft | 15 kts | 193° |
| 2026-04-18 09:48 | 50.04405 | 8.56838 | 362 ft | 18 kts | 193° |
| 2026-04-18 09:48 | 50.04313 | 8.56817 | 360 ft | 0 kts | 192° |
| 2026-04-18 09:49 | 50.04305 | 8.56815 | 362 ft | 3 kts | 192° |
| 2026-04-18 09:49 | 50.04284 | 8.56821 | 360 ft | 0 kts | 146° |
| 2026-04-18 09:50 | 50.04282 | 8.56828 | 364 ft | 3 kts | 120° |
| 2026-04-18 09:50 | 50.04275 | 8.56904 | 359 ft | 12 kts | 76° |
| 2026-04-18 09:50 | 50.04316 | 8.57069 | 363 ft | 20 kts | 69° |
| 2026-04-18 09:51 | 50.04372 | 8.57304 | 363 ft | 25 kts | 69° |
| 2026-04-18 09:51 | 50.04442 | 8.57589 | 364 ft | 30 kts | 69° |
| 2026-04-18 09:51 | 50.04498 | 8.57832 | 366 ft | 6 kts | 71° |
| 2026-04-18 09:51 | 50.04524 | 8.57945 | 364 ft | 16 kts | 70° |
| 2026-04-18 09:52 | 50.04573 | 8.58147 | 369 ft | 24 kts | 70° |
| 2026-04-18 09:52 | 50.04628 | 8.58370 | 368 ft | 24 kts | 69° |
| 2026-04-18 09:52 | 50.04641 | 8.58559 | 373 ft | 11 kts | 166° |
| 2026-04-18 09:52 | 50.04545 | 8.58617 | 371 ft | 18 kts | 161° |
| 2026-04-18 09:53 | 50.04474 | 8.58532 | 370 ft | 0 kts | 248° |
| 2026-04-18 09:53 | 50.04444 | 8.58417 | 369 ft | 40 kts | 249° |
| 2026-04-18 09:54 | 50.04263 | 8.57663 | 364 ft | 107 kts | 249° |
| 2026-04-18 09:54 | 50.03942 | 8.56311 | 357 ft | 157 kts | 249° |
| 2026-04-18 09:54 | 50.03519 | 8.54562 | 601 ft | 178 kts | 249° |
| 2026-04-18 09:54 | 50.03063 | 8.52737 | 1253 ft | 183 kts | 246° |
| 2026-04-18 09:55 | 50.02448 | 8.50976 | 1870 ft | 187 kts | 236° |
| 2026-04-18 09:55 | 50.01421 | 8.49649 | 2251 ft | 202 kts | 201° |
| 2026-04-18 09:55 | 50.00057 | 8.48947 | 2804 ft | 207 kts | 198° |
| 2026-04-18 09:55 | 49.98677 | 8.48288 | 3410 ft | 209 kts | 197° |
| 2026-04-18 09:56 | 49.97272 | 8.47637 | 4017 ft | 211 kts | 197° |
| 2026-04-18 09:56 | 49.95871 | 8.46993 | 4611 ft | 214 kts | 197° |
| 2026-04-18 09:56 | 49.94407 | 8.46246 | 4954 ft | 230 kts | 206° |
| 2026-04-18 09:56 | 49.93171 | 8.44549 | 5379 ft | 245 kts | 239° |
| 2026-04-18 09:57 | 49.92520 | 8.42078 | 6091 ft | 249 kts | 251° |
| 2026-04-18 09:57 | 49.91950 | 8.39520 | 6863 ft | 251 kts | 251° |
| 2026-04-18 09:57 | 49.91370 | 8.36925 | 7502 ft | 261 kts | 251° |
| 2026-04-18 09:57 | 49.90760 | 8.34203 | 8009 ft | 276 kts | 251° |
| 2026-04-18 09:58 | 49.90128 | 8.31353 | 8758 ft | 281 kts | 253° |
| 2026-04-18 09:58 | 49.89829 | 8.28343 | 9506 ft | 285 kts | 271° |
| 2026-04-18 09:58 | 49.90126 | 8.25293 | 10271 ft | 289 kts | 288° |
| 2026-04-18 09:58 | 49.91022 | 8.22384 | 10563 ft | 311 kts | 305° |
| 2026-04-18 09:59 | 49.92367 | 8.19595 | 10806 ft | 333 kts | 307° |
| 2026-04-18 09:59 | 49.93800 | 8.16691 | 11337 ft | 342 kts | 310° |
| 2026-04-18 10:00 | 49.98776 | 8.09772 | 13199 ft | 353 kts | 319° |
| 2026-04-18 10:00 | 50.00653 | 8.07273 | 13861 ft | 356 kts | 319° |
| 2026-04-18 10:00 | 50.02544 | 8.04748 | 14495 ft | 360 kts | 319° |
| 2026-04-18 10:00 | 50.04447 | 8.02203 | 15115 ft | 364 kts | 319° |
| 2026-04-18 10:01 | 50.06381 | 7.99603 | 15702 ft | 368 kts | 319° |
| 2026-04-18 10:01 | 50.08324 | 7.96985 | 16298 ft | 371 kts | 319° |
| 2026-04-18 10:01 | 50.10288 | 7.94339 | 16888 ft | 374 kts | 319° |
| 2026-04-18 10:01 | 50.12259 | 7.91684 | 17456 ft | 377 kts | 319° |
| 2026-04-18 10:02 | 50.14258 | 7.88998 | 17992 ft | 381 kts | 319° |
| 2026-04-18 10:02 | 50.16256 | 7.86309 | 18532 ft | 383 kts | 319° |
| 2026-04-18 10:02 | 50.18280 | 7.83576 | 19053 ft | 386 kts | 319° |
| 2026-04-18 10:02 | 50.20326 | 7.80808 | 19571 ft | 389 kts | 319° |
| 2026-04-18 10:03 | 50.22382 | 7.78028 | 20068 ft | 392 kts | 319° |
| 2026-04-18 10:03 | 50.24470 | 7.75264 | 20549 ft | 395 kts | 322° |
| 2026-04-18 10:03 | 50.26809 | 7.72946 | 21012 ft | 398 kts | 333° |
| 2026-04-18 10:03 | 50.29315 | 7.71182 | 21465 ft | 401 kts | 336° |
| 2026-04-18 10:04 | 50.31886 | 7.69431 | 21918 ft | 404 kts | 336° |
| 2026-04-18 10:04 | 50.34467 | 7.67671 | 22367 ft | 406 kts | 336° |
| 2026-04-18 10:04 | 50.37074 | 7.65890 | 22787 ft | 409 kts | 336° |
| 2026-04-18 10:04 | 50.39694 | 7.64091 | 23212 ft | 411 kts | 336° |
| 2026-04-18 10:05 | 50.42329 | 7.62276 | 23625 ft | 414 kts | 336° |
| 2026-04-18 10:05 | 50.44938 | 7.60476 | 24011 ft | 416 kts | 336° |
| 2026-04-18 10:05 | 50.47634 | 7.58617 | 24398 ft | 419 kts | 336° |
| 2026-04-18 10:05 | 50.50281 | 7.56787 | 24775 ft | 421 kts | 336° |
| 2026-04-18 10:06 | 50.52973 | 7.54925 | 25131 ft | 424 kts | 336° |
| 2026-04-18 10:06 | 50.55668 | 7.52984 | 25475 ft | 426 kts | 332° |
| 2026-04-18 10:06 | 50.58203 | 7.50541 | 25816 ft | 428 kts | 327° |
| 2026-04-18 10:06 | 50.60710 | 7.47968 | 26159 ft | 430 kts | 327° |
| 2026-04-18 10:07 | 50.63227 | 7.45385 | 26508 ft | 432 kts | 327° |
| 2026-04-18 10:07 | 50.65752 | 7.42793 | 26839 ft | 434 kts | 327° |
| 2026-04-18 10:08 | 50.73017 | 7.34752 | 27763 ft | 440 kts | 315° |
| 2026-04-18 10:08 | 50.75062 | 7.31120 | 28073 ft | 442 kts | 306° |
| 2026-04-18 10:08 | 50.76706 | 7.27016 | 28372 ft | 443 kts | 297° |
| 2026-04-18 10:08 | 50.78123 | 7.22666 | 28661 ft | 445 kts | 297° |
| 2026-04-18 10:09 | 50.79539 | 7.18304 | 28941 ft | 447 kts | 297° |
| 2026-04-18 10:09 | 50.80962 | 7.13919 | 29195 ft | 449 kts | 297° |
| 2026-04-18 10:09 | 50.82396 | 7.09508 | 29462 ft | 451 kts | 297° |
| 2026-04-18 10:09 | 50.83813 | 7.05144 | 29720 ft | 452 kts | 297° |
| 2026-04-18 10:10 | 50.85253 | 7.00705 | 29971 ft | 454 kts | 297° |
| 2026-04-18 10:10 | 50.86700 | 6.96235 | 30216 ft | 456 kts | 297° |
| 2026-04-18 10:10 | 50.88146 | 6.91748 | 30456 ft | 457 kts | 297° |
| 2026-04-18 10:10 | 50.89596 | 6.87242 | 30743 ft | 458 kts | 297° |
| 2026-04-18 10:11 | 50.91021 | 6.82803 | 31084 ft | 457 kts | 297° |
| 2026-04-18 10:11 | 50.92475 | 6.78262 | 31400 ft | 456 kts | 297° |
| 2026-04-18 10:11 | 50.93893 | 6.73824 | 31707 ft | 456 kts | 296° |
| 2026-04-18 10:11 | 50.95323 | 6.69341 | 32014 ft | 455 kts | 296° |
| 2026-04-18 10:12 | 50.96747 | 6.64866 | 32329 ft | 454 kts | 296° |
| 2026-04-18 10:12 | 50.98172 | 6.60378 | 32642 ft | 454 kts | 296° |
| 2026-04-18 10:12 | 50.99592 | 6.55900 | 32945 ft | 453 kts | 296° |
| 2026-04-18 10:12 | 51.01010 | 6.51429 | 33235 ft | 452 kts | 296° |
| 2026-04-18 10:13 | 51.02423 | 6.46966 | 33536 ft | 452 kts | 296° |
| 2026-04-18 10:13 | 51.03832 | 6.42504 | 33819 ft | 451 kts | 296° |
| 2026-04-18 10:13 | 51.05221 | 6.38098 | 33975 ft | 451 kts | 296° |
| 2026-04-18 10:14 | 51.08017 | 6.29218 | 34010 ft | 447 kts | 296° |
| 2026-04-18 10:14 | 51.10794 | 6.20353 | 34009 ft | 447 kts | 296° |
| 2026-04-18 10:15 | 51.13530 | 6.11471 | 34011 ft | 446 kts | 292° |
| 2026-04-18 10:15 | 51.15314 | 6.02024 | 34010 ft | 446 kts | 284° |
| 2026-04-18 10:16 | 51.16867 | 5.92511 | 34007 ft | 446 kts | 284° |
| 2026-04-18 10:16 | 51.18418 | 5.82932 | 34003 ft | 446 kts | 285° |
| 2026-04-18 10:17 | 51.20300 | 5.73500 | 34001 ft | 445 kts | 289° |
| 2026-04-18 10:17 | 51.22445 | 5.64276 | 33998 ft | 445 kts | 290° |
| 2026-04-18 10:18 | 51.24578 | 5.54976 | 33997 ft | 445 kts | 289° |
| 2026-04-18 10:18 | 51.26604 | 5.45663 | 33996 ft | 445 kts | 289° |
| 2026-04-18 10:19 | 51.28602 | 5.36301 | 33996 ft | 445 kts | 289° |
| 2026-04-18 10:19 | 51.30607 | 5.26924 | 33995 ft | 445 kts | 289° |
| 2026-04-18 10:20 | 51.32613 | 5.17557 | 33994 ft | 445 kts | 289° |
| 2026-04-18 10:20 | 51.34625 | 5.08144 | 33995 ft | 445 kts | 289° |
| 2026-04-18 10:21 | 51.36611 | 4.98770 | 33994 ft | 445 kts | 288° |
| 2026-04-18 10:21 | 51.38577 | 4.89427 | 33994 ft | 445 kts | 288° |
| 2026-04-18 10:22 | 51.40546 | 4.80023 | 33996 ft | 445 kts | 288° |
| 2026-04-18 10:22 | 51.42517 | 4.70593 | 33994 ft | 445 kts | 288° |
| 2026-04-18 10:23 | 51.44487 | 4.61151 | 33994 ft | 445 kts | 288° |
| 2026-04-18 10:23 | 51.46429 | 4.51792 | 33998 ft | 445 kts | 288° |
| 2026-04-18 10:24 | 51.48369 | 4.42347 | 33998 ft | 445 kts | 288° |
| 2026-04-18 10:24 | 51.50300 | 4.32892 | 33998 ft | 445 kts | 288° |
| 2026-04-18 10:25 | 51.52234 | 4.23431 | 33994 ft | 445 kts | 288° |
| 2026-04-18 10:25 | 51.54144 | 4.13973 | 33998 ft | 445 kts | 288° |
| 2026-04-18 10:26 | 51.56068 | 4.04495 | 33996 ft | 445 kts | 288° |
| 2026-04-18 10:26 | 51.57973 | 3.95022 | 33998 ft | 445 kts | 288° |
| 2026-04-18 10:27 | 51.59866 | 3.85586 | 33996 ft | 445 kts | 288° |
| 2026-04-18 10:27 | 51.61760 | 3.76098 | 33999 ft | 445 kts | 288° |
| 2026-04-18 10:28 | 51.63649 | 3.66583 | 33999 ft | 445 kts | 287° |
| 2026-04-18 10:28 | 51.65506 | 3.57122 | 34000 ft | 445 kts | 287° |
| 2026-04-18 10:29 | 51.67368 | 3.47611 | 33999 ft | 445 kts | 287° |
| 2026-04-18 10:29 | 51.68614 | 3.41235 | 34000 ft | 445 kts | 287° |
| 2026-04-18 10:30 | 51.72649 | 3.19223 | 33995 ft | 445 kts | 278° |
| 2026-04-18 10:31 | 51.72599 | 3.09294 | 33998 ft | 444 kts | 262° |
| 2026-04-18 10:31 | 51.71745 | 2.99451 | 33997 ft | 445 kts | 262° |
| 2026-04-18 10:32 | 51.70885 | 2.89550 | 33997 ft | 445 kts | 262° |
| 2026-04-18 10:32 | 51.70014 | 2.79654 | 33997 ft | 445 kts | 262° |
| 2026-04-18 10:33 | 51.69141 | 2.69840 | 33999 ft | 445 kts | 262° |
| 2026-04-18 10:33 | 51.68260 | 2.59958 | 34000 ft | 445 kts | 262° |
| 2026-04-18 10:34 | 51.67370 | 2.50069 | 34001 ft | 445 kts | 262° |
| 2026-04-18 10:34 | 51.66479 | 2.40249 | 34001 ft | 445 kts | 262° |
| 2026-04-18 10:35 | 51.65568 | 2.30378 | 34002 ft | 445 kts | 261° |
| 2026-04-18 10:35 | 51.64649 | 2.20506 | 34002 ft | 445 kts | 261° |
| 2026-04-18 10:36 | 51.63709 | 2.10631 | 34002 ft | 445 kts | 261° |
| 2026-04-18 10:36 | 51.62788 | 2.00838 | 34003 ft | 445 kts | 261° |
| 2026-04-18 10:37 | 51.61883 | 1.90978 | 34003 ft | 445 kts | 262° |
| 2026-04-18 10:37 | 51.60971 | 1.81139 | 34004 ft | 445 kts | 261° |
| 2026-04-18 10:38 | 51.60039 | 1.71272 | 34006 ft | 445 kts | 261° |
| 2026-04-18 10:38 | 51.59198 | 1.61397 | 34006 ft | 445 kts | 268° |
| 2026-04-18 10:39 | 51.59497 | 1.51448 | 34006 ft | 445 kts | 274° |
| 2026-04-18 10:39 | 51.59928 | 1.41585 | 34004 ft | 445 kts | 274° |
| 2026-04-18 10:40 | 51.60337 | 1.31653 | 34003 ft | 445 kts | 274° |
| 2026-04-18 10:40 | 51.60743 | 1.21703 | 34002 ft | 445 kts | 274° |
| 2026-04-18 10:41 | 51.61150 | 1.11749 | 34003 ft | 445 kts | 274° |
| 2026-04-18 10:41 | 51.61541 | 1.01850 | 34004 ft | 445 kts | 274° |
| 2026-04-18 10:42 | 51.61919 | 0.91907 | 34005 ft | 445 kts | 273° |
| 2026-04-18 10:42 | 51.62294 | 0.81961 | 34007 ft | 445 kts | 273° |
| 2026-04-18 10:43 | 51.62664 | 0.71982 | 34009 ft | 445 kts | 273° |
| 2026-04-18 10:43 | 51.63022 | 0.62082 | 34008 ft | 445 kts | 273° |
| 2026-04-18 10:44 | 51.63374 | 0.52125 | 34007 ft | 445 kts | 273° |
| 2026-04-18 10:44 | 51.63720 | 0.42162 | 34005 ft | 445 kts | 273° |
| 2026-04-18 10:45 | 51.64054 | 0.32189 | 34005 ft | 445 kts | 273° |
| 2026-04-18 10:45 | 51.64549 | 0.22244 | 34003 ft | 445 kts | 281° |
| 2026-04-18 10:46 | 51.66705 | 0.12994 | 34001 ft | 445 kts | 301° |
| 2026-04-18 10:46 | 51.70626 | 0.05302 | 34000 ft | 445 kts | 314° |
| 2026-04-18 10:47 | 51.74942 | -0.01781 | 33999 ft | 445 kts | 314° |
| 2026-04-18 10:47 | 51.79290 | -0.08944 | 33999 ft | 446 kts | 314° |
| 2026-04-18 10:48 | 51.83629 | -0.16125 | 34000 ft | 446 kts | 314° |
| 2026-04-18 10:48 | 51.87929 | -0.23279 | 34000 ft | 446 kts | 314° |
| 2026-04-18 10:49 | 51.92261 | -0.30496 | 33999 ft | 446 kts | 314° |
| 2026-04-18 10:49 | 51.96596 | -0.37721 | 34000 ft | 446 kts | 314° |
| 2026-04-18 10:50 | 52.00918 | -0.44954 | 34003 ft | 446 kts | 314° |
| 2026-04-18 10:50 | 52.05214 | -0.52182 | 34007 ft | 446 kts | 314° |
| 2026-04-18 10:51 | 52.09536 | -0.59470 | 34010 ft | 446 kts | 314° |
| 2026-04-18 10:51 | 52.13853 | -0.66752 | 34009 ft | 446 kts | 314° |
| 2026-04-18 10:52 | 52.18132 | -0.74000 | 34009 ft | 446 kts | 313° |
| 2026-04-18 10:52 | 52.22432 | -0.81311 | 34008 ft | 446 kts | 314° |
| 2026-04-18 10:53 | 52.27224 | -0.87714 | 34005 ft | 446 kts | 329° |
| 2026-04-18 10:53 | 52.32268 | -0.92699 | 33268 ft | 451 kts | 328° |
| 2026-04-18 10:53 | 52.34953 | -0.95373 | 32156 ft | 461 kts | 328° |
| 2026-04-18 10:54 | 52.37646 | -0.98069 | 31616 ft | 455 kts | 328° |
| 2026-04-18 10:54 | 52.40370 | -1.00797 | 31000 ft | 451 kts | 328° |
| 2026-04-18 10:54 | 52.43045 | -1.03476 | 30396 ft | 447 kts | 328° |
| 2026-04-18 10:54 | 52.45687 | -1.06124 | 29788 ft | 443 kts | 328° |
| 2026-04-18 10:55 | 52.48309 | -1.08752 | 29184 ft | 440 kts | 328° |
| 2026-04-18 10:55 | 52.50914 | -1.11369 | 28607 ft | 436 kts | 328° |
| 2026-04-18 10:55 | 52.52623 | -1.13087 | 28226 ft | 433 kts | 328° |
| 2026-04-18 10:55 | 52.55178 | -1.15661 | 27656 ft | 430 kts | 328° |
| 2026-04-18 10:56 | 52.58529 | -1.19087 | 26890 ft | 425 kts | 328° |
| 2026-04-18 10:56 | 52.60230 | -1.20826 | 26492 ft | 422 kts | 328° |
| 2026-04-18 10:56 | 52.62710 | -1.23341 | 25652 ft | 425 kts | 328° |
| 2026-04-18 10:56 | 52.65228 | -1.25873 | 24962 ft | 424 kts | 328° |
| 2026-04-18 10:57 | 52.67505 | -1.28156 | 24395 ft | 421 kts | 328° |
| 2026-04-18 10:57 | 52.69990 | -1.30656 | 23778 ft | 418 kts | 328° |
| 2026-04-18 10:57 | 52.72470 | -1.33161 | 23188 ft | 414 kts | 328° |
| 2026-04-18 10:57 | 52.74913 | -1.35643 | 22604 ft | 411 kts | 328° |
| 2026-04-18 10:58 | 52.77326 | -1.38104 | 22047 ft | 407 kts | 328° |
| 2026-04-18 10:58 | 52.79737 | -1.40568 | 21491 ft | 403 kts | 328° |
| 2026-04-18 10:58 | 52.82115 | -1.43001 | 20945 ft | 400 kts | 328° |
| 2026-04-18 10:58 | 52.84442 | -1.45385 | 20408 ft | 397 kts | 328° |
| 2026-04-18 10:59 | 52.86788 | -1.47794 | 19876 ft | 393 kts | 328° |
| 2026-04-18 10:59 | 52.89092 | -1.50161 | 19151 ft | 386 kts | 328° |
| 2026-04-18 10:59 | 52.91375 | -1.52504 | 18181 ft | 382 kts | 328° |
| 2026-04-18 10:59 | 52.93627 | -1.54819 | 17258 ft | 377 kts | 328° |
| 2026-04-18 11:00 | 52.95816 | -1.57073 | 16366 ft | 372 kts | 328° |
| 2026-04-18 11:00 | 52.98004 | -1.59332 | 15472 ft | 367 kts | 328° |
| 2026-04-18 11:00 | 53.00163 | -1.61568 | 14587 ft | 362 kts | 328° |
| 2026-04-18 11:00 | 53.02287 | -1.63771 | 13701 ft | 358 kts | 328° |
| 2026-04-18 11:01 | 53.04374 | -1.65952 | 12820 ft | 353 kts | 325° |
| 2026-04-18 11:01 | 53.06223 | -1.68591 | 11937 ft | 348 kts | 311° |
| 2026-04-18 11:01 | 53.07738 | -1.71587 | 11637 ft | 326 kts | 310° |
| 2026-04-18 11:02 | 53.10504 | -1.76964 | 11057 ft | 294 kts | 310° |
| 2026-04-18 11:02 | 53.11866 | -1.79519 | 10814 ft | 304 kts | 316° |
| 2026-04-18 11:02 | 53.13680 | -1.81476 | 10424 ft | 313 kts | 339° |
| 2026-04-18 11:02 | 53.15777 | -1.82132 | 10032 ft | 299 kts | 355° |
| 2026-04-18 11:03 | 53.17816 | -1.82349 | 9593 ft | 289 kts | 356° |
| 2026-04-18 11:03 | 53.19805 | -1.82533 | 9011 ft | 285 kts | 356° |
| 2026-04-18 11:03 | 53.21771 | -1.82711 | 8398 ft | 282 kts | 356° |
| 2026-04-18 11:03 | 53.23720 | -1.82887 | 7775 ft | 279 kts | 356° |
| 2026-04-18 11:04 | 53.25660 | -1.83062 | 7153 ft | 277 kts | 356° |
| 2026-04-18 11:04 | 53.27574 | -1.83233 | 6540 ft | 274 kts | 356° |
| 2026-04-18 11:04 | 53.29467 | -1.83402 | 5906 ft | 272 kts | 356° |
| 2026-04-18 11:04 | 53.31351 | -1.83571 | 5292 ft | 269 kts | 356° |
| 2026-04-18 11:05 | 53.33190 | -1.83736 | 4658 ft | 267 kts | 356° |
| 2026-04-18 11:05 | 53.35022 | -1.83900 | 4229 ft | 257 kts | 356° |
| 2026-04-18 11:05 | 53.36734 | -1.84051 | 4088 ft | 236 kts | 356° |
| 2026-04-18 11:05 | 53.38339 | -1.84195 | 3881 ft | 226 kts | 355° |
| 2026-04-18 11:06 | 53.39860 | -1.84763 | 3823 ft | 219 kts | 341° |
| 2026-04-18 11:06 | 53.41251 | -1.85623 | 3821 ft | 208 kts | 334° |
| 2026-04-18 11:06 | 53.42395 | -1.87034 | 3829 ft | 204 kts | 315° |
| 2026-04-18 11:06 | 53.43305 | -1.88797 | 3826 ft | 202 kts | 307° |
| 2026-04-18 11:07 | 53.44144 | -1.90686 | 3827 ft | 201 kts | 306° |
| 2026-04-18 11:07 | 53.44859 | -1.92339 | 3828 ft | 201 kts | 305° |
| 2026-04-18 11:07 | 53.45618 | -1.94085 | 3833 ft | 204 kts | 306° |
| 2026-04-18 11:07 | 53.46455 | -1.96006 | 3834 ft | 205 kts | 305° |
| 2026-04-18 11:08 | 53.47152 | -1.98083 | 3830 ft | 204 kts | 287° |
| 2026-04-18 11:08 | 53.47372 | -2.00380 | 3928 ft | 192 kts | 268° |
| 2026-04-18 11:08 | 53.47140 | -2.02468 | 3784 ft | 176 kts | 252° |
| 2026-04-18 11:08 | 53.46556 | -2.04226 | 3570 ft | 171 kts | 237° |
| 2026-04-18 11:09 | 53.45829 | -2.05725 | 3353 ft | 164 kts | 237° |
| 2026-04-18 11:09 | 53.45136 | -2.07178 | 3139 ft | 154 kts | 235° |
| 2026-04-18 11:09 | 53.44482 | -2.08548 | 2919 ft | 146 kts | 236° |
| 2026-04-18 11:09 | 53.43874 | -2.09816 | 2736 ft | 135 kts | 236° |
| 2026-04-18 11:10 | 53.43287 | -2.11044 | 2574 ft | 133 kts | 236° |
| 2026-04-18 11:10 | 53.42709 | -2.12250 | 2396 ft | 132 kts | 237° |
| 2026-04-18 11:10 | 53.42137 | -2.13443 | 2218 ft | 129 kts | 238° |
| 2026-04-18 11:10 | 53.41573 | -2.14618 | 2049 ft | 129 kts | 237° |
| 2026-04-18 11:11 | 53.41012 | -2.15786 | 1865 ft | 129 kts | 237° |
| 2026-04-18 11:11 | 53.40454 | -2.16948 | 1682 ft | 130 kts | 235° |
| 2026-04-18 11:11 | 53.39883 | -2.18134 | 1502 ft | 130 kts | 237° |
| 2026-04-18 11:11 | 53.39319 | -2.19306 | 1332 ft | 130 kts | 236° |
| 2026-04-18 11:12 | 53.38751 | -2.20486 | 1137 ft | 128 kts | 237° |
| 2026-04-18 11:12 | 53.38187 | -2.21659 | 962 ft | 129 kts | 235° |
| 2026-04-18 11:12 | 53.37632 | -2.22819 | 768 ft | 132 kts | 236° |
| 2026-04-18 11:12 | 53.37073 | -2.24033 | 540 ft | 129 kts | 233° |
| 2026-04-18 11:13 | 53.36488 | -2.25179 | 356 ft | 127 kts | 233° |
| 2026-04-18 11:13 | 53.35948 | -2.26341 | 267 ft | 123 kts | 234° |
| 2026-04-18 11:13 | 53.35531 | -2.27158 | 261 ft | 50 kts | 232° |
| 2026-04-18 11:13 | 53.35404 | -2.27435 | 258 ft | 28 kts | 232° |
| 2026-04-18 11:14 | 53.35294 | -2.27686 | 253 ft | 24 kts | 245° |
| 2026-04-18 11:14 | 53.35255 | -2.27899 | 246 ft | 21 kts | 259° |
| 2026-04-18 11:14 | 53.35232 | -2.28134 | 240 ft | 12 kts | 264° |
| 2026-04-18 11:14 | 53.35272 | -2.28180 | 236 ft | 9 kts | 1° |
| 2026-04-18 11:15 | 53.35327 | -2.28128 | 239 ft | 10 kts | 46° |
| 2026-04-18 11:15 | 53.35351 | -2.28088 | 241 ft | 0 kts | 44° |
| 2026-04-18 11:21 | 53.35352 | -2.28086 | 241 ft | 1 kts | 44° |
| 2026-04-18 11:21 | 53.35359 | -2.28076 | 241 ft | 2 kts | 43° |
| 2026-04-18 11:21 | 53.35393 | -2.28024 | 242 ft | 11 kts | 42° |
| 2026-04-18 11:22 | 53.35474 | -2.27921 | 245 ft | 18 kts | 12° |
| 2026-04-18 11:22 | 53.35620 | -2.27898 | 247 ft | 25 kts | 6° |
| 2026-04-18 11:22 | 53.35782 | -2.27868 | 247 ft | 23 kts | 6° |
| 2026-04-18 11:22 | 53.35927 | -2.27845 | 247 ft | 16 kts | 6° |
| 2026-04-18 11:23 | 53.36016 | -2.27918 | 247 ft | 19 kts | 309° |
| 2026-04-18 11:23 | 53.36103 | -2.28061 | 247 ft | 18 kts | 317° |
| 2026-04-18 11:23 | 53.36180 | -2.28191 | 247 ft | 15 kts | 313° |
| 2026-04-18 11:23 | 53.36265 | -2.28337 | 247 ft | 20 kts | 314° |
| 2026-04-18 11:24 | 53.36357 | -2.28470 | 247 ft | 14 kts | 348° |
| 2026-04-18 11:24 | 53.36457 | -2.28547 | 247 ft | 18 kts | 317° |
| 2026-04-18 11:24 | 53.36533 | -2.28678 | 247 ft | 0 kts | 326° |
| 2026-04-18 11:25 | 53.36541 | -2.28690 | 247 ft | 4 kts | 321° |